Time;durP1;ratioP1;P1;durP2;ratioP2;P2;SDS_P1;SDS_P2;PMS_P1;PMS_P2;Temp;Humidity;BMP_temperature;BMP_pressure;BME280_temperature;BME280_humidity;BME280_pressure;Samples;Min_cycle;Max_cycle;Signal;HPM_P1;HPM_P2
2024/02/15 00:00:17;;;;;;;54.00;30.45;;;11.30;99.90;;;;;;7384824;19;20022;-67
2024/02/15 00:02:46;;;;;;;53.47;29.30;;;11.30;99.90;;;;;;7391429;19;20092;-68
2024/02/15 00:05:14;;;;;;;52.28;29.52;;;11.30;99.90;;;;;;7390916;19;20018;-68
2024/02/15 00:07:48;;;;;;;53.67;28.13;;;11.40;99.90;;;;;;7382763;19;20011;-67
2024/02/15 00:10:15;;;;;;;51.83;27.35;;;11.20;99.90;;;;;;7381756;19;20018;-67
2024/02/15 00:12:42;;;;;;;49.97;27.13;;;11.20;99.90;;;;;;7383270;19;20388;-66
2024/02/15 00:15:08;;;;;;;44.08;26.13;;;11.30;99.90;;;;;;7382961;19;20495;-67
2024/02/15 00:17:35;;;;;;;45.58;24.95;;;11.30;99.90;;;;;;7386358;19;20018;-67
2024/02/15 00:20:09;;;;;;;41.38;25.20;;;11.30;99.90;;;;;;7381156;19;21283;-66
2024/02/15 00:22:36;;;;;;;50.55;26.83;;;11.30;99.90;;;;;;7378440;19;20102;-67
2024/02/15 00:25:04;;;;;;;45.20;24.00;;;11.30;99.90;;;;;;7377591;19;20022;-66
2024/02/15 00:27:32;;;;;;;45.92;23.50;;;11.30;99.90;;;;;;7377786;19;20371;-66
2024/02/15 00:30:00;;;;;;;49.08;25.00;;;11.30;99.90;;;;;;7386265;19;20010;-67
2024/02/15 00:32:26;;;;;;;45.20;24.50;;;11.20;99.90;;;;;;7387076;19;20823;-67
2024/02/15 00:34:53;;;;;;;41.97;22.98;;;11.20;99.90;;;;;;7385305;19;20389;-68
2024/02/15 00:37:20;;;;;;;43.63;23.10;;;11.20;99.90;;;;;;7376928;19;20011;-67
2024/02/15 00:39:47;;;;;;;45.00;24.20;;;11.20;99.90;;;;;;7382169;19;20035;-67
2024/02/15 00:42:15;;;;;;;44.30;23.85;;;11.20;99.90;;;;;;7375144;19;20034;-67
2024/02/15 00:44:41;;;;;;;43.88;23.42;;;11.20;99.90;;;;;;7388552;19;20019;-70
2024/02/15 00:47:12;;;;;;;47.20;23.48;;;11.30;99.90;;;;;;7393013;19;20493;-67
2024/02/15 00:49:38;;;;;;;46.90;24.17;;;11.30;99.90;;;;;;7390868;19;20007;-68
2024/02/15 00:52:05;;;;;;;46.92;23.35;;;11.20;99.90;;;;;;7387128;19;20046;-67
2024/02/15 00:54:31;;;;;;;47.17;23.98;;;11.10;99.90;;;;;;7376021;19;20590;-67
2024/02/15 00:56:57;;;;;;;43.75;23.80;;;11.20;99.90;;;;;;7375800;19;20022;-66
2024/02/15 00:59:24;;;;;;;51.40;24.05;;;11.20;99.90;;;;;;7375020;19;20022;-66
2024/02/15 01:01:50;;;;;;;49.45;24.67;;;11.20;99.90;;;;;;7375651;19;20086;-66
2024/02/15 01:04:19;;;;;;;47.80;24.83;;;11.20;99.90;;;;;;7375857;19;20036;-67
2024/02/15 01:06:45;;;;;;;45.90;23.25;;;11.20;99.90;;;;;;7378109;19;20430;-68
2024/02/15 01:09:12;;;;;;;50.63;25.52;;;11.20;99.90;;;;;;7378685;19;20035;-67
2024/02/15 01:11:39;;;;;;;49.85;24.15;;;11.20;99.90;;;;;;7379699;19;20491;-67
2024/02/15 01:14:06;;;;;;;52.72;25.42;;;11.20;99.90;;;;;;7380582;19;20621;-67
2024/02/15 01:16:33;;;;;;;57.97;26.77;;;11.20;99.90;;;;;;7387239;19;20504;-68
2024/02/15 01:19:00;;;;;;;61.40;26.70;;;11.20;99.90;;;;;;7392806;19;20014;-69
2024/02/15 01:21:26;;;;;;;58.28;26.90;;;11.20;99.90;;;;;;7389506;19;20014;-69
2024/02/15 01:23:53;;;;;;;55.70;26.83;;;11.20;99.90;;;;;;7391985;19;20019;-69
2024/02/15 01:26:20;;;;;;;58.53;26.33;;;11.20;99.90;;;;;;7391179;19;20023;-69
2024/02/15 01:28:47;;;;;;;60.78;28.05;;;11.10;99.90;;;;;;7397353;19;20011;-69
2024/02/15 01:31:17;;;;;;;61.92;28.73;;;11.20;99.90;;;;;;7397134;19;20320;-69
2024/02/15 01:33:46;;;;;;;54.40;27.48;;;11.20;99.90;;;;;;7387854;19;20015;-69
2024/02/15 01:36:16;;;;;;;64.90;28.15;;;11.20;99.90;;;;;;7385133;19;20106;-68
2024/02/15 01:38:44;;;;;;;56.42;27.65;;;11.20;99.90;;;;;;7385713;19;20078;-68
2024/02/15 01:41:11;;;;;;;61.63;28.98;;;11.30;99.90;;;;;;7382901;19;20030;-67
2024/02/15 01:43:44;;;;;;;67.45;29.45;;;11.20;99.90;;;;;;7389952;19;20014;-69
2024/02/15 01:46:14;;;;;;;65.88;30.02;;;11.20;99.90;;;;;;7383393;19;20046;-68
2024/02/15 01:48:41;;;;;;;62.72;29.27;;;11.20;99.90;;;;;;7393771;19;20031;-69
2024/02/15 01:51:11;;;;;;;67.18;29.70;;;11.20;99.90;;;;;;7385489;19;20952;-67
2024/02/15 01:53:38;;;;;;;68.38;30.08;;;11.30;99.90;;;;;;7383073;19;20022;-68
2024/02/15 01:56:05;;;;;;;63.78;28.80;;;11.30;99.90;;;;;;7381980;19;20018;-68
2024/02/15 01:58:32;;;;;;;64.43;27.75;;;11.20;99.90;;;;;;7383131;19;20019;-68
2024/02/15 02:01:01;;;;;;;63.00;29.40;;;11.20;99.90;;;;;;7381886;19;20035;-69
2024/02/15 02:03:27;;;;;;;56.75;28.17;;;11.20;99.90;;;;;;7385354;19;20022;-67
2024/02/15 02:05:55;;;;;;;54.30;25.48;;;11.20;99.90;;;;;;7381182;19;20098;-68
2024/02/15 02:08:22;;;;;;;53.20;25.88;;;11.20;99.90;;;;;;7392302;19;20474;-68
2024/02/15 02:10:49;;;;;;;50.58;24.60;;;11.20;99.90;;;;;;7387580;19;20058;-68
2024/02/15 02:13:15;;;;;;;54.03;26.23;;;11.30;99.90;;;;;;7385734;19;20025;-68
2024/02/15 02:15:41;;;;;;;58.47;25.77;;;11.20;99.90;;;;;;7390848;19;20015;-69
2024/02/15 02:18:09;;;;;;;45.65;24.98;;;11.30;99.90;;;;;;7397498;19;20502;-69
2024/02/15 02:20:38;;;;;;;41.97;24.25;;;11.20;99.90;;;;;;7389203;19;20023;-68
2024/02/15 02:23:13;;;;;;;43.95;23.23;;;11.20;99.90;;;;;;7382324;19;20475;-67
2024/02/15 02:25:42;;;;;;;43.30;21.95;;;11.20;99.90;;;;;;7400622;19;20017;-70
2024/02/15 02:28:10;;;;;;;41.88;23.50;;;11.20;99.90;;;;;;7400443;19;20023;-69
2024/02/15 02:30:37;;;;;;;44.92;21.92;;;11.20;99.90;;;;;;7399237;19;20018;-70
2024/02/15 02:33:07;;;;;;;38.85;21.30;;;11.30;99.90;;;;;;7394020;19;20182;-69
2024/02/15 02:35:36;;;;;;;44.45;22.52;;;11.20;99.90;;;;;;7391652;19;20555;-68
2024/02/15 02:38:03;;;;;;;41.70;20.10;;;11.20;99.90;;;;;;7393110;19;20023;-70
2024/02/15 02:40:30;;;;;;;37.30;20.35;;;11.20;99.90;;;;;;7388636;19;20018;-67
2024/02/15 02:43:01;;;;;;;43.47;19.83;;;11.30;99.90;;;;;;7392131;19;20345;-69
2024/02/15 02:45:27;;;;;;;41.00;20.25;;;11.20;99.90;;;;;;7398686;19;20467;-69
2024/02/15 02:47:54;;;;;;;39.28;19.98;;;11.30;99.90;;;;;;7398777;19;20031;-69
2024/02/15 02:50:25;;;;;;;35.13;18.80;;;11.30;99.90;;;;;;7393775;19;20031;-68
2024/02/15 02:52:52;;;;;;;37.20;19.52;;;11.20;99.90;;;;;;7381385;19;20495;-70
2024/02/15 02:55:20;;;;;;;33.22;19.10;;;11.20;99.90;;;;;;7397235;19;20011;-69
2024/02/15 02:57:47;;;;;;;36.20;18.67;;;11.30;99.90;;;;;;7380481;19;20450;-68
2024/02/15 03:00:16;;;;;;;40.20;20.38;;;11.20;99.90;;;;;;7378264;19;20026;-68
2024/02/15 03:02:44;;;;;;;37.53;20.02;;;11.30;99.90;;;;;;7394096;19;20010;-69
2024/02/15 03:05:11;;;;;;;43.83;20.40;;;11.30;99.90;;;;;;7385962;19;20047;-67
2024/02/15 03:07:44;;;;;;;48.15;21.13;;;11.30;99.90;;;;;;7396141;19;20500;-68
2024/02/15 03:10:13;;;;;;;40.97;20.92;;;11.30;99.90;;;;;;7392092;19;20494;-70
2024/02/15 03:12:40;;;;;;;44.88;20.73;;;11.30;99.90;;;;;;7392626;19;20026;-69
2024/02/15 03:15:10;;;;;;;40.97;23.45;;;11.30;99.90;;;;;;7389574;19;20621;-68
2024/02/15 03:17:44;;;;;;;43.95;22.20;;;11.40;99.90;;;;;;7392137;19;20365;-68
2024/02/15 03:20:21;;;;;;;38.28;23.70;;;11.30;99.90;;;;;;7394469;19;20118;-69
2024/02/15 03:22:53;;;;;;;44.63;23.42;;;11.40;99.90;;;;;;7388391;19;19998;-69
2024/02/15 03:25:23;;;;;;;50.05;23.30;;;11.30;99.90;;;;;;7388972;19;20014;-69
2024/02/15 03:27:55;;;;;;;48.33;23.85;;;11.30;99.90;;;;;;7381817;19;20079;-67
2024/02/15 03:30:24;;;;;;;;;;;11.40;99.90;;;;;;7396644;19;20018;-69
2024/02/15 03:32:52;;;;;;;40.58;24.15;;;11.40;99.90;;;;;;7393179;19;19923;-67
2024/02/15 03:35:22;;;;;;;42.72;23.70;;;11.30;99.90;;;;;;7395664;19;20022;-70
2024/02/15 03:37:50;;;;;;;42.33;24.13;;;11.40;99.90;;;;;;7397081;19;20011;-69
2024/02/15 03:40:20;;;;;;;42.55;24.63;;;11.40;99.90;;;;;;7398263;19;20015;-69
2024/02/15 03:42:47;;;;;;;44.88;25.45;;;11.50;99.90;;;;;;7393300;19;20050;-70
2024/02/15 03:45:16;;;;;;;45.40;24.90;;;11.30;99.90;;;;;;7385122;19;20014;-68
2024/02/15 03:47:43;;;;;;;45.15;23.73;;;11.30;99.90;;;;;;7392015;19;20072;-68
2024/02/15 03:50:11;;;;;;;44.40;25.30;;;11.40;99.90;;;;;;7383303;19;20145;-68
2024/02/15 03:52:38;;;;;;;41.72;25.23;;;11.40;99.90;;;;;;7381384;19;20022;-68
2024/02/15 03:55:07;;;;;;;44.80;26.73;;;11.50;99.90;;;;;;7388482;19;20157;-68
2024/02/15 03:57:49;;;;;;;43.50;26.98;;;11.50;99.90;;;;;;7391624;19;20033;-69
2024/02/15 04:00:20;;;;;;;39.55;26.40;;;11.50;99.90;;;;;;7383197;19;20048;-68
2024/02/15 04:02:50;;;;;;;49.97;27.80;;;11.50;99.90;;;;;;7393426;19;20310;-69
2024/02/15 04:05:21;;;;;;;42.65;25.90;;;11.50;99.90;;;;;;7389523;19;20023;-70
2024/02/15 04:07:49;;;;;;;40.47;27.73;;;11.40;99.90;;;;;;7385273;19;20047;-70
2024/02/15 04:10:18;;;;;;;53.38;29.30;;;11.50;99.90;;;;;;7389020;19;20704;-69
2024/02/15 04:12:57;;;;;;;49.65;28.02;;;11.40;99.90;;;;;;7374483;19;20487;-69
2024/02/15 04:15:25;;;;;;;54.17;30.25;;;11.40;99.90;;;;;;7384967;19;20405;-70
2024/02/15 04:17:55;;;;;;;54.10;29.50;;;11.40;99.90;;;;;;7388313;19;20018;-70
2024/02/15 04:20:29;;;;;;;58.92;29.38;;;11.40;99.90;;;;;;7387930;19;20393;-68
2024/02/15 04:22:57;;;;;;;54.85;30.17;;;11.40;99.90;;;;;;7388931;19;20039;-69
2024/02/15 04:25:27;;;;;;;;;;;11.50;99.90;;;;;;7381410;19;20023;-69
2024/02/15 04:27:54;;;;;;;57.72;30.55;;;11.50;99.90;;;;;;7385706;19;20188;-69
2024/02/15 04:30:23;;;;;;;61.85;32.22;;;11.50;99.90;;;;;;7390004;19;20015;-69
2024/02/15 04:32:51;;;;;;;60.28;31.50;;;11.50;99.90;;;;;;7393323;19;20006;-70
2024/02/15 04:35:19;;;;;;;61.17;31.35;;;11.50;99.90;;;;;;7386860;19;20035;-70
2024/02/15 04:37:46;;;;;;;64.70;34.45;;;11.50;99.90;;;;;;7393907;19;20003;-70
2024/02/15 04:40:14;;;;;;;61.85;33.30;;;11.50;99.90;;;;;;7373431;19;21561;-69
2024/02/15 04:42:44;;;;;;;67.72;32.63;;;11.50;99.90;;;;;;7387396;19;20044;-69
2024/02/15 04:45:15;;;;;;;64.63;33.25;;;11.60;99.90;;;;;;7379787;19;20495;-70
2024/02/15 04:47:57;;;;;;;60.83;33.47;;;11.60;99.90;;;;;;7388654;19;20014;-69
2024/02/15 04:50:25;;;;;;;58.03;34.28;;;11.50;99.90;;;;;;7386191;19;20497;-68
2024/02/15 04:52:56;;;;;;;63.15;34.58;;;11.50;99.90;;;;;;7390734;19;20010;-70
2024/02/15 04:55:23;;;;;;;72.20;36.27;;;11.50;99.90;;;;;;7378775;19;20023;-68
2024/02/15 04:57:54;;;;;;;64.88;36.05;;;11.50;99.90;;;;;;7386180;19;20287;-69
2024/02/15 05:00:25;;;;;;;62.75;36.13;;;11.50;99.90;;;;;;7380178;19;20045;-71
2024/02/15 05:02:52;;;;;;;69.68;37.22;;;11.50;99.90;;;;;;7385522;19;20006;-70
2024/02/15 05:05:20;;;;;;;67.88;37.30;;;11.50;99.90;;;;;;7394108;19;20070;-68
2024/02/15 05:07:48;;;;;;;64.00;38.70;;;11.50;99.90;;;;;;7391282;19;20015;-70
2024/02/15 05:10:16;;;;;;;69.55;37.55;;;11.50;99.90;;;;;;7396081;19;20051;-71
2024/02/15 05:12:47;;;;;;;66.07;38.33;;;11.50;99.90;;;;;;7387402;19;20022;-69
2024/02/15 05:15:17;;;;;;;65.78;39.35;;;11.50;99.90;;;;;;7392936;19;20039;-69
2024/02/15 05:17:43;;;;;;;66.68;37.95;;;11.50;99.90;;;;;;7394452;19;20131;-69
2024/02/15 05:20:11;;;;;;;73.20;39.70;;;11.50;99.90;;;;;;7396740;19;20007;-70
2024/02/15 05:22:40;;;;;;;72.78;38.63;;;11.50;99.90;;;;;;7397245;19;20443;-70
2024/02/15 05:25:12;;;;;;;71.57;38.65;;;11.40;99.90;;;;;;7396224;19;20395;-70
2024/02/15 05:27:38;;;;;;;67.22;37.83;;;11.40;99.90;;;;;;7397191;19;20018;-70
2024/02/15 05:30:08;;;;;;;70.03;39.53;;;11.50;99.90;;;;;;7401365;19;20011;-70
2024/02/15 05:32:41;;;;;;;65.82;39.13;;;11.30;99.90;;;;;;7399872;19;20487;-70
2024/02/15 05:35:13;;;;;;;65.78;36.47;;;11.40;99.90;;;;;;7399955;19;20022;-70
2024/02/15 05:37:39;;;;;;;63.53;37.85;;;11.50;99.90;;;;;;7399074;19;20022;-71
2024/02/15 05:40:07;;;;;;;59.55;36.97;;;11.40;99.90;;;;;;7402229;19;20011;-70
2024/02/15 05:42:33;;;;;;;61.50;38.00;;;11.50;99.90;;;;;;7399604;19;20022;-70
2024/02/15 05:45:26;;;;;;;65.85;38.42;;;11.50;99.90;;;;;;7401645;19;20045;-71
2024/02/15 05:47:53;;;;;;;64.57;38.40;;;11.40;99.90;;;;;;7401383;19;20025;-70
2024/02/15 05:50:21;;;;;;;59.38;36.85;;;11.40;99.90;;;;;;7398770;19;20014;-70
2024/02/15 05:52:47;;;;;;;58.22;37.17;;;11.50;99.90;;;;;;7399879;19;20021;-70
2024/02/15 05:55:16;;;;;;;58.45;36.78;;;11.50;99.90;;;;;;7399097;19;20510;-70
2024/02/15 05:57:43;;;;;;;59.28;37.10;;;11.40;99.90;;;;;;7399735;19;20018;-70
2024/02/15 06:00:18;;;;;;;56.03;36.58;;;11.50;99.90;;;;;;7400765;19;20070;-70
2024/02/15 06:03:06;;;;;;;56.30;35.45;;;11.50;99.90;;;;;;7396503;19;20014;-71
2024/02/15 06:05:37;;;;;;;58.75;34.88;;;11.50;99.90;;;;;;7397872;19;20015;-70
2024/02/15 06:08:05;;;;;;;;;;;11.50;99.90;;;;;;7396095;19;20018;-73
2024/02/15 06:10:32;;;;;;;59.38;33.70;;;11.50;99.90;;;;;;7396405;19;19995;-71
2024/02/15 06:12:59;;;;;;;58.28;35.03;;;11.50;99.90;;;;;;7396171;19;20064;-71
2024/02/15 06:15:26;;;;;;;54.80;34.08;;;11.50;99.90;;;;;;7396177;19;20027;-70
2024/02/15 06:17:53;;;;;;;50.30;33.35;;;11.50;99.90;;;;;;7397952;19;20035;-71
2024/02/15 06:20:21;;;;;;;53.55;34.00;;;11.50;99.90;;;;;;7397183;19;20022;-71
2024/02/15 06:22:49;;;;;;;55.10;31.73;;;11.50;99.90;;;;;;7394669;19;20032;-71
2024/02/15 06:25:20;;;;;;;48.47;31.98;;;11.60;99.90;;;;;;7394353;19;20822;-71
2024/02/15 06:27:48;;;;;;;;;;;11.50;99.90;;;;;;7388394;19;20038;-71
2024/02/15 06:41:23;;;;;;;44.88;29.80;;;11.50;99.90;;;;;;7391872;19;20019;-68
2024/02/15 06:44:00;;;;;;;42.45;28.95;;;11.50;99.90;;;;;;7400505;19;20027;-68
2024/02/15 06:46:27;;;;;;;48.33;30.05;;;11.60;99.90;;;;;;7386789;19;20047;-68
2024/02/15 06:48:54;;;;;;;49.03;29.15;;;11.50;99.90;;;;;;7383487;19;20408;-67
2024/02/15 06:52:01;;;;;;;46.92;28.85;;;11.50;99.90;;;;;;7392689;19;20018;-68
2024/02/15 06:54:29;;;;;;;49.85;28.95;;;11.50;99.90;;;;;;7393580;19;20051;-65
2024/02/15 06:56:56;;;;;;;46.08;28.00;;;11.50;99.90;;;;;;7390477;19;20019;-70
2024/02/15 06:59:23;;;;;;;47.63;29.05;;;11.60;99.90;;;;;;7402960;19;20514;-69
2024/02/15 07:02:12;;;;;;;40.13;28.75;;;11.50;99.90;;;;;;7400137;19;20010;-68
2024/02/15 07:04:38;;;;;;;40.15;26.33;;;11.60;99.90;;;;;;7386667;19;20046;-68
2024/02/15 07:07:05;;;;;;;40.35;26.60;;;11.60;99.90;;;;;;7385449;19;20047;-68
2024/02/15 07:09:46;;;;;;;41.08;27.25;;;11.50;99.90;;;;;;7392674;19;20023;-69
2024/02/15 07:12:18;;;;;;;44.97;26.83;;;11.50;99.90;;;;;;7397722;19;20510;-69
2024/02/15 07:14:46;;;;;;;47.25;28.40;;;11.50;99.90;;;;;;7390880;19;20010;-68
2024/02/15 07:17:14;;;;;;;45.25;28.48;;;11.60;99.90;;;;;;7385232;19;20044;-67
2024/02/15 07:19:44;;;;;;;44.15;27.58;;;11.50;99.90;;;;;;7380265;19;20054;-68
2024/02/15 07:22:13;;;;;;;47.85;27.70;;;11.60;99.90;;;;;;7388678;19;20458;-69
2024/02/15 07:24:45;;;;;;;43.13;28.35;;;11.60;99.90;;;;;;7399141;19;20011;-69
2024/02/15 07:27:12;;;;;;;44.28;26.42;;;11.60;99.90;;;;;;7393937;19;20483;-68
2024/02/15 07:29:39;;;;;;;40.13;27.05;;;11.60;99.90;;;;;;7393927;19;20011;-69
2024/02/15 07:32:06;;;;;;;42.80;26.42;;;11.60;99.90;;;;;;7389948;19;20121;-69
2024/02/15 07:34:36;;;;;;;40.55;27.38;;;11.60;99.90;;;;;;7398822;19;20011;-69
2024/02/15 07:37:18;;;;;;;45.88;25.40;;;11.60;99.90;;;;;;7399331;19;20013;-70
2024/02/15 07:39:45;;;;;;;;;;;11.60;99.90;;;;;;7397945;19;20011;-69
2024/02/15 07:42:12;;;;;;;34.03;22.90;;;11.60;99.90;;;;;;7399565;19;20344;-69
2024/02/15 07:44:39;;;;;;;33.17;24.67;;;11.60;99.90;;;;;;7377029;19;20015;-66
2024/02/15 07:47:07;;;;;;;42.58;24.30;;;11.70;99.90;;;;;;7387526;19;20031;-68
2024/02/15 07:49:36;;;;;;;36.20;25.10;;;11.60;99.90;;;;;;7389290;19;20070;-68
2024/02/15 07:52:04;;;;;;;38.83;25.02;;;11.70;99.90;;;;;;7393144;19;20353;-68
2024/02/15 07:54:33;;;;;;;36.22;23.42;;;11.60;99.90;;;;;;7383540;19;20027;-69
2024/02/15 07:57:03;;;;;;;34.80;23.63;;;11.70;99.90;;;;;;7390075;19;20095;-68
2024/02/15 07:59:31;;;;;;;36.65;24.25;;;11.60;99.90;;;;;;7387075;19;20034;-66
2024/02/15 08:01:58;;;;;;;38.22;23.02;;;11.70;99.90;;;;;;7383313;19;20018;-68
2024/02/15 08:04:25;;;;;;;33.13;22.60;;;11.70;99.90;;;;;;7378493;19;20018;-69
2024/02/15 08:06:53;;;;;;;35.45;24.00;;;11.70;99.90;;;;;;7378114;19;20429;-65
2024/02/15 08:09:23;;;;;;;31.25;21.48;;;11.70;99.90;;;;;;7373168;19;20022;-68
2024/02/15 08:11:51;;;;;;;30.05;21.55;;;11.60;99.90;;;;;;7378466;19;20039;-68
2024/02/15 08:14:20;;;;;;;33.78;21.52;;;11.70;99.90;;;;;;7377490;19;20026;-68
2024/02/15 08:16:47;;;;;;;32.97;22.10;;;11.70;99.90;;;;;;7376369;19;20022;-68
2024/02/15 08:19:14;;;;;;;31.08;20.48;;;11.70;99.90;;;;;;7374814;19;20026;-68
2024/02/15 08:21:46;;;;;;;33.05;20.55;;;11.60;99.90;;;;;;7371706;19;20509;-68
2024/02/15 08:24:13;;;;;;;27.20;21.60;;;11.70;99.90;;;;;;7372730;19;20483;-68
2024/02/15 08:26:41;;;;;;;29.73;21.55;;;11.70;99.90;;;;;;7372609;19;20035;-68
2024/02/15 08:29:13;;;;;;;34.35;22.35;;;11.70;99.90;;;;;;7374470;19;20022;-68
2024/02/15 08:31:41;;;;;;;31.25;22.38;;;11.70;99.90;;;;;;7373593;19;20022;-65
2024/02/15 08:34:11;;;;;;;29.08;21.85;;;11.70;99.90;;;;;;7374132;19;20018;-68
2024/02/15 08:36:39;;;;;;;32.65;21.73;;;11.70;99.90;;;;;;7375731;19;20531;-67
2024/02/15 08:39:08;;;;;;;29.98;21.75;;;11.70;99.90;;;;;;7379677;19;20056;-68
2024/02/15 08:41:35;;;;;;;34.03;22.15;;;11.70;99.90;;;;;;7379866;19;20015;-70
2024/02/15 08:44:05;;;;;;;26.73;21.85;;;11.70;99.90;;;;;;7378155;19;21641;-68
2024/02/15 08:46:32;;;;;;;32.75;22.98;;;11.80;99.90;;;;;;7380408;19;20023;-69
2024/02/15 08:49:00;;;;;;;32.05;22.00;;;11.80;99.90;;;;;;7386552;19;20078;-69
2024/02/15 08:51:26;;;;;;;31.65;22.45;;;11.80;99.90;;;;;;7384737;19;20019;-70
2024/02/15 08:53:53;;;;;;;31.90;22.75;;;11.80;99.90;;;;;;7387356;19;20401;-68
2024/02/15 08:56:19;;;;;;;32.17;21.88;;;11.80;99.90;;;;;;7380157;19;20018;-68
2024/02/15 08:58:45;;;;;;;30.23;21.15;;;11.80;99.90;;;;;;7378765;19;20022;-68
2024/02/15 09:01:13;;;;;;;33.30;21.90;;;11.80;99.90;;;;;;7380278;19;20042;-67
2024/02/15 09:03:39;;;;;;;31.30;21.85;;;11.90;99.90;;;;;;7377792;19;20027;-68
2024/02/15 09:06:07;;;;;;;29.63;21.73;;;11.90;99.90;;;;;;7382786;19;20381;-68
2024/02/15 09:08:33;;;;;;;29.20;22.17;;;11.90;99.90;;;;;;7382449;19;20015;-68
2024/02/15 09:11:06;;;;;;;30.30;20.80;;;11.90;99.90;;;;;;7383587;19;20559;-67
2024/02/15 09:13:33;;;;;;;32.70;22.23;;;11.80;99.90;;;;;;7381232;19;20030;-67
2024/02/15 09:16:03;;;;;;;25.63;20.90;;;12.00;99.90;;;;;;7382474;19;20648;-68
2024/02/15 09:18:29;;;;;;;29.33;21.35;;;11.90;99.90;;;;;;7381845;19;20065;-69
2024/02/15 09:20:55;;;;;;;24.85;19.77;;;11.90;99.90;;;;;;7383940;19;20022;-67
2024/02/15 09:23:23;;;;;;;26.45;19.77;;;11.90;99.90;;;;;;7383205;19;20035;-68
2024/02/15 09:25:52;;;;;;;26.55;20.08;;;12.00;99.90;;;;;;7381591;19;20024;-67
2024/02/15 09:28:24;;;;;;;27.17;19.40;;;11.90;99.90;;;;;;7382833;19;20014;-68
2024/02/15 09:30:59;;;;;;;27.92;19.00;;;12.00;99.90;;;;;;7385572;19;20026;-70
2024/02/15 09:33:26;;;;;;;27.17;19.92;;;11.90;99.90;;;;;;7382399;19;20038;-68
2024/02/15 09:35:55;;;;;;;26.20;19.55;;;12.00;99.90;;;;;;7377980;19;20028;-67
2024/02/15 09:38:21;;;;;;;28.00;20.00;;;12.00;99.90;;;;;;7384109;19;20026;-67
2024/02/15 09:40:51;;;;;;;26.42;19.30;;;12.10;99.90;;;;;;7386414;19;20034;-68
2024/02/15 09:43:17;;;;;;;32.22;20.13;;;12.20;99.90;;;;;;7383047;19;20559;-67
2024/02/15 09:45:43;;;;;;;26.38;20.23;;;12.10;99.90;;;;;;7384502;19;20018;-67
2024/02/15 09:48:12;;;;;;;23.65;19.75;;;12.00;99.90;;;;;;7375346;19;20035;-66
2024/02/15 09:50:42;;;;;;;22.00;18.08;;;12.00;99.90;;;;;;7376086;19;20556;-66
2024/02/15 09:53:09;;;;;;;25.42;18.73;;;12.20;99.90;;;;;;7379249;19;20387;-66
2024/02/15 09:55:41;;;;;;;24.25;18.67;;;12.10;99.90;;;;;;7379017;19;20408;-67
2024/02/15 09:58:09;;;;;;;23.52;17.70;;;12.20;99.90;;;;;;7382070;19;20508;-66
2024/02/15 10:00:36;;;;;;;22.33;17.48;;;12.20;99.90;;;;;;7374067;19;20123;-67
2024/02/15 10:03:06;;;;;;;19.27;17.17;;;12.20;99.90;;;;;;7376940;19;20058;-67
2024/02/15 10:05:34;;;;;;;18.77;14.95;;;12.30;99.90;;;;;;7378509;19;20740;-67
2024/02/15 10:08:03;;;;;;;21.02;15.85;;;12.30;99.90;;;;;;7381972;19;20503;-67
2024/02/15 10:10:30;;;;;;;16.92;15.10;;;12.30;99.90;;;;;;7380975;19;20022;-66
2024/02/15 10:13:00;;;;;;;17.98;15.77;;;12.30;99.90;;;;;;7378260;19;20795;-68
2024/02/15 10:15:31;;;;;;;17.67;15.40;;;12.30;99.90;;;;;;7381846;19;20014;-67
2024/02/15 10:17:59;;;;;;;16.50;14.60;;;12.30;99.90;;;;;;7380889;19;20014;-69
2024/02/15 10:20:25;;;;;;;15.15;13.20;;;12.40;99.90;;;;;;7383521;19;20017;-69
2024/02/15 10:23:08;;;;;;;19.63;13.98;;;12.50;99.90;;;;;;7379232;19;20018;-67
2024/02/15 10:25:36;;;;;;;14.48;12.88;;;12.40;99.90;;;;;;7382486;19;20023;-68
2024/02/15 10:28:06;;;;;;;16.52;13.50;;;12.50;99.90;;;;;;7384231;19;20060;-67
2024/02/15 10:30:37;;;;;;;15.38;13.32;;;12.50;99.90;;;;;;7382504;19;20422;-67
2024/02/15 10:33:04;;;;;;;13.40;12.00;;;12.60;99.90;;;;;;7383899;19;20014;-67
2024/02/15 10:35:34;;;;;;;14.75;13.25;;;12.60;99.90;;;;;;7378639;19;20026;-67
2024/02/15 10:38:08;;;;;;;14.23;12.63;;;12.60;99.90;;;;;;7381277;19;20022;-67
2024/02/15 10:40:38;;;;;;;14.30;12.32;;;12.50;99.90;;;;;;7379539;19;20506;-68
2024/02/15 10:43:08;;;;;;;12.85;11.45;;;12.60;99.90;;;;;;7375446;19;20026;-66
2024/02/15 10:45:39;;;;;;;12.75;11.20;;;12.70;99.90;;;;;;7378573;19;20029;-67
2024/02/15 10:48:07;;;;;;;;;;;12.70;99.90;;;;;;7380658;19;20124;-69
2024/02/15 10:50:37;;;;;;;12.48;10.93;;;12.60;99.90;;;;;;7379571;19;19926;-67
2024/02/15 10:53:22;;;;;;;13.50;12.10;;;12.60;99.90;;;;;;7380376;19;20021;-67
2024/02/15 10:56:09;;;;;;;13.57;12.15;;;12.70;99.90;;;;;;7383794;19;20793;-67
2024/02/15 10:58:46;;;;;;;13.02;11.65;;;12.70;99.90;;;;;;7377725;19;20015;-67
2024/02/15 11:01:17;;;;;;;12.95;11.55;;;12.80;99.90;;;;;;7377253;19;20015;-67
2024/02/15 11:04:04;;;;;;;14.13;12.45;;;12.70;99.90;;;;;;7381855;19;20014;-67
2024/02/15 11:06:35;;;;;;;13.60;11.55;;;12.80;99.90;;;;;;7377350;19;20043;-66
2024/02/15 11:09:02;;;;;;;12.90;11.43;;;12.80;99.90;;;;;;7380430;19;20018;-66
2024/02/15 11:11:30;;;;;;;14.27;12.25;;;12.80;99.90;;;;;;7381056;19;20860;-66
2024/02/15 11:14:23;;;;;;;12.43;10.75;;;12.80;99.90;;;;;;7382833;19;20393;-66
2024/02/15 11:16:50;;;;;;;12.75;11.45;;;12.80;99.90;;;;;;7380989;19;20022;-66
2024/02/15 11:19:32;;;;;;;12.32;10.20;;;12.70;99.90;;;;;;7377952;19;20053;-67
2024/02/15 11:21:58;;;;;;;11.18;9.95;;;12.70;99.90;;;;;;7380878;19;20019;-66
2024/02/15 11:24:27;;;;;;;13.38;10.13;;;12.70;99.90;;;;;;7374965;19;20048;-66
2024/02/15 11:27:04;;;;;;;12.25;11.05;;;12.80;99.90;;;;;;7379990;19;20431;-67
2024/02/15 11:29:55;;;;;;;10.25;9.27;;;12.70;99.90;;;;;;7379838;19;20029;-68
2024/02/15 11:32:53;;;;;;;11.73;9.83;;;12.70;99.90;;;;;;7376993;19;20014;-66
2024/02/15 11:35:22;;;;;;;12.05;9.18;;;12.60;99.90;;;;;;7375495;19;20373;-66
2024/02/15 11:37:49;;;;;;;11.48;10.05;;;12.70;99.90;;;;;;7380305;19;20091;-66
2024/02/15 11:40:27;;;;;;;10.77;9.32;;;12.60;99.90;;;;;;7378399;19;20018;-67
2024/02/15 11:42:59;;;;;;;12.32;9.55;;;12.60;99.90;;;;;;7379604;19;20019;-67
2024/02/15 11:45:41;;;;;;;11.63;9.05;;;12.70;99.90;;;;;;7377730;19;20019;-67
2024/02/15 11:48:12;;;;;;;12.30;9.10;;;12.80;99.90;;;;;;7377636;19;20074;-66
2024/02/15 11:50:39;;;;;;;9.75;8.75;;;12.70;99.90;;;;;;7375590;19;20022;-67
2024/02/15 11:53:09;;;;;;;10.52;8.75;;;12.80;99.90;;;;;;7375494;19;20014;-68
2024/02/15 11:55:39;;;;;;;8.98;8.07;;;12.80;99.90;;;;;;7375591;19;20022;-66
2024/02/15 12:20:11;;;;;;;10.23;8.60;;;12.80;99.90;;;;;;7371820;19;20023;-66
2024/02/15 12:22:45;;;;;;;10.32;9.00;;;12.70;99.90;;;;;;7374129;19;22003;-66
2024/02/15 12:25:16;;;;;;;11.32;9.48;;;12.70;99.90;;;;;;7377777;19;20018;-67
2024/02/15 12:27:44;;;;;;;13.30;9.73;;;12.60;99.90;;;;;;7377711;19;20474;-67
2024/02/15 12:30:20;;;;;;;11.90;10.15;;;12.60;99.90;;;;;;7370562;19;20121;-66
2024/02/15 12:32:50;;;;;;;10.95;9.85;;;12.60;99.90;;;;;;7370034;19;20019;-65
2024/02/15 12:35:25;;;;;;;12.43;11.13;;;12.60;99.90;;;;;;7371616;19;20034;-66
2024/02/15 12:38:08;;;;;;;12.80;10.25;;;12.60;99.90;;;;;;7374384;19;20018;-66
2024/02/15 12:40:36;;;;;;;12.75;11.05;;;12.60;99.90;;;;;;7373520;19;20014;-66
2024/02/15 12:43:05;;;;;;;11.95;10.57;;;12.60;99.90;;;;;;7371846;19;20029;-66
2024/02/15 12:45:36;;;;;;;11.45;10.25;;;12.60;99.90;;;;;;7375069;19;20018;-66
2024/02/15 12:48:07;;;;;;;12.10;10.63;;;12.60;99.90;;;;;;7374091;19;20557;-66
2024/02/15 12:50:34;;;;;;;12.13;10.93;;;12.60;99.90;;;;;;7371919;19;20522;-67
2024/02/15 12:53:03;;;;;;;11.95;10.68;;;12.60;99.90;;;;;;7375409;19;20018;-66
2024/02/15 12:55:34;;;;;;;12.75;10.75;;;12.60;99.90;;;;;;7370130;19;20077;-66
2024/02/15 12:58:08;;;;;;;12.80;11.43;;;12.60;99.90;;;;;;7373438;19;20029;-71
2024/02/15 13:00:38;;;;;;;15.60;11.77;;;12.60;99.90;;;;;;7375076;19;20018;-66
2024/02/15 13:03:08;;;;;;;12.70;11.45;;;12.60;99.90;;;;;;7371656;19;20475;-66
2024/02/15 13:05:38;;;;;;;12.70;11.40;;;12.60;99.90;;;;;;7369489;19;20035;-66
2024/02/15 13:08:13;;;;;;;14.27;11.93;;;12.60;99.90;;;;;;7367388;19;20030;-66
2024/02/15 13:10:39;;;;;;;15.77;12.77;;;12.60;99.90;;;;;;7371157;19;20375;-68
2024/02/15 13:13:05;;;;;;;15.70;12.60;;;12.60;99.90;;;;;;7373527;19;20022;-66
2024/02/15 13:15:36;;;;;;;14.55;12.20;;;12.60;99.90;;;;;;7373334;19;20082;-66